Centre Hospitalier Cholet Heliport

FR-0159 · Maine-et-Loire, Paesi della Loira, Francia

Storia di METAR FR-0159 · Centre Hospitalier Cholet Heliport

Di seguito sono riportati i METAR degli ultimi giorni. Seleziona un anno per sfogliare i METAR più vecchi, dall'anno 2007 in poi.

18 luglio 2024

Tempo Codice Tempo meteorologico Temp. Vista Base nuvolosa Vento METAR/SPECI
10:00
V
24 °C 10 km+ - Var Var 3 kt METAR LFRI 180800Z AUTO VRB03KT CAVOK 24/16 Q1019 NOSIG
09:30
V
23 °C 10 km+ - 110° 110° 3 kt METAR LFRI 180730Z AUTO 11003KT 060V170 CAVOK 23/16 Q1019 NOSIG
09:00
V
21 °C 10 km+ - 100° 100° 7 kt METAR LFRI 180700Z AUTO 10007KT CAVOK 21/15 Q1018 NOSIG
08:30
V
20 °C 10 km+ - 080° 080° 5 kt METAR LFRI 180630Z AUTO 08005KT CAVOK 20/16 Q1018 NOSIG
08:00
V
17 °C 10 km+ - 080° 080° 6 kt METAR LFRI 180600Z AUTO 08006KT CAVOK 17/15 Q1018 NOSIG
07:30
V
17 °C 10 km+ - 090° 090° 6 kt METAR LFRI 180530Z AUTO 09006KT CAVOK 17/14 Q1018 NOSIG
07:00
V
16 °C 10 km+ - 080° 080° 5 kt METAR LFRI 180500Z AUTO 08005KT CAVOK 16/14 Q1018
06:30
V
16 °C 10 km+ - 080° 080° 5 kt METAR LFRI 180430Z AUTO 08005KT CAVOK 16/14 Q1018
06:00
V
15 °C 10 km+ - 070° 070° 5 kt METAR LFRI 180400Z AUTO 07005KT CAVOK 15/13 Q1018
05:30
V
16 °C 10 km+ - 060° 060° 4 kt METAR LFRI 180330Z AUTO 06004KT CAVOK 16/14 Q1018
05:00
V
15 °C 10 km+ - 070° 070° 5 kt METAR LFRI 180300Z AUTO 07005KT CAVOK 15/14 Q1018
04:30
V
15 °C 10 km+ - 070° 070° 5 kt METAR LFRI 180230Z AUTO 07005KT CAVOK 15/13 Q1018
04:00
V
16 °C 10 km+ - 080° 080° 5 kt METAR LFRI 180200Z AUTO 08005KT CAVOK 16/14 Q1018
03:30
V
16 °C 10 km+ - 070° 070° 5 kt METAR LFRI 180130Z AUTO 07005KT CAVOK 16/14 Q1018
03:00
V
16 °C 10 km+ - 070° 070° 4 kt METAR LFRI 180100Z AUTO 07004KT CAVOK 16/14 Q1018
02:30
V
16 °C 10 km+ - 070° 070° 5 kt METAR LFRI 180030Z AUTO 07005KT CAVOK 16/14 Q1019
02:00
V
16 °C 10 km+ - 070° 070° 4 kt METAR LFRI 180000Z AUTO 07004KT CAVOK 16/14 Q1019
01:30
V
17 °C 10 km+ - 060° 060° 4 kt METAR LFRI 172330Z AUTO 06004KT CAVOK 17/14 Q1019
01:00
V
17 °C 10 km+ - 050° 050° 5 kt METAR LFRI 172300Z AUTO 05005KT CAVOK 17/14 Q1019
00:30
V
17 °C 10 km+ - 050° 050° 5 kt METAR LFRI 172230Z AUTO 05005KT CAVOK 17/14 Q1019
00:00
V
17 °C 10 km+ - 050° 050° 5 kt METAR LFRI 172200Z AUTO 05005KT CAVOK 17/14 Q1019

17 luglio 2024

Tempo Codice Tempo meteorologico Temp. Vista Base nuvolosa Vento METAR/SPECI
23:30
V
18 °C 10 km+ - 040° 040° 5 kt METAR LFRI 172130Z AUTO 04005KT CAVOK 18/14 Q1019
23:00
V
19 °C 10 km+ - 040° 040° 4 kt METAR LFRI 172100Z AUTO 04004KT CAVOK 19/14 Q1019 NOSIG
22:30
V
20 °C 10 km+ - 030° 030° 4 kt METAR LFRI 172030Z AUTO 03004KT CAVOK 20/14 Q1019 NOSIG
22:00
V
20 °C 10 km+ - 020° 020° 4 kt METAR LFRI 172000Z AUTO 02004KT CAVOK 20/14 Q1019 NOSIG
21:30
V
22 °C 10 km+ - 050° 050° 4 kt METAR LFRI 171930Z AUTO 05004KT CAVOK 22/14 Q1019 NOSIG
21:00
V
23 °C 10 km+ - 060° 060° 5 kt METAR LFRI 171900Z AUTO 06005KT CAVOK 23/15 Q1019 NOSIG
20:30
V
24 °C 10 km+ - 050° 050° 5 kt METAR LFRI 171830Z AUTO 05005KT CAVOK 24/14 Q1019 NOSIG
20:00
V
24 °C 10 km+ - 060° 060° 5 kt METAR LFRI 171800Z AUTO 06005KT 040V100 CAVOK 24/14 Q1019 NOSIG
19:30
V
25 °C 10 km+ - 050° 050° 5 kt METAR LFRI 171730Z AUTO 05005KT CAVOK 25/14 Q1019 NOSIG
19:00
V
25 °C 10 km+ - 080° 080° 5 kt METAR LFRI 171700Z AUTO 08005KT 050V110 9999 FEW011 25/13 Q1019
18:30
V
25 °C 10 km+ - 020° 020° 4 kt METAR LFRI 171630Z AUTO 02004KT 350V080 CAVOK 25/15 Q1019
18:00
V
25 °C 10 km+ - 040° 040° 6 kt METAR LFRI 171600Z AUTO 04006KT 350V080 CAVOK 25/15 Q1019
17:30
V
25 °C 10 km+ - 020° 020° 4 kt METAR LFRI 171530Z AUTO 02004KT 320V080 CAVOK 25/13 Q1019
17:00
V
25 °C 10 km+ - 080° 080° 3 kt METAR LFRI 171500Z AUTO 08003KT 040V120 CAVOK 25/14 Q1020
16:30
V
24 °C 10 km+ - 040° 040° 5 kt METAR LFRI 171430Z AUTO 04005KT 340V080 CAVOK 24/14 Q1020
16:00
V
24 °C 10 km+ - 040° 040° 4 kt METAR LFRI 171400Z AUTO 04004KT 340V120 CAVOK 24/15 Q1020
15:30
V
23 °C 10 km+ - Var Var 3 kt METAR LFRI 171330Z AUTO VRB03KT 9999 FEW041 23/13 Q1020
15:00
V
23 °C 10 km+ - 090° 090° 5 kt METAR LFRI 171300Z AUTO 09005KT 030V190 CAVOK 23/13 Q1020
14:30
V
23 °C 10 km+ - Var Var 4 kt METAR LFRI 171230Z AUTO VRB04KT 9999 FEW014 23/13 Q1021
14:00
V
22 °C 10 km+ 3.500 ft 040° 040° 4 kt METAR LFRI 171200Z AUTO 04004KT 320V130 9999 BKN035 22/14 Q1021
13:30
V
22 °C 10 km+ - 150° 150° 3 kt METAR LFRI 171130Z AUTO 15003KT 090V260 9999 FEW034 22/14 Q1021
13:00
V
21 °C 10 km+ - 090° 090° 6 kt METAR LFRI 171100Z AUTO 09006KT 020V160 9999 FEW027 21/14 Q1021
12:30
V
21 °C 10 km+ - 140° 140° 4 kt METAR LFRI 171030Z AUTO 14004KT 070V210 CAVOK 21/14 Q1021
12:00
V
20 °C 10 km+ - Var Var 3 kt METAR LFRI 171000Z AUTO VRB03KT CAVOK 20/15 Q1022
11:30
V
19 °C 10 km+ - 160° 160° 3 kt METAR LFRI 170930Z AUTO 16003KT 120V250 9999 FEW018 19/14 Q1021
11:00
V
19 °C 10 km+ - 150° 150° 3 kt METAR LFRI 170900Z AUTO 15003KT 080V200 9999 FEW011 19/15 Q1022
10:30
V
18 °C 10 km+ - Var Var 3 kt METAR LFRI 170830Z AUTO VRB03KT 9999 FEW007 18/15 Q1022
10:00
M
17 °C 10 km+ 1.000 ft 170° 170° 5 kt METAR LFRI 170800Z AUTO 17005KT 130V200 9999 BKN010 17/15 Q1022
09:30
I
17 °C 10 km+ 600 ft Var Var 3 kt METAR LFRI 170730Z AUTO VRB03KT 9999 BKN006 BKN010 17/15 Q1022
09:00
V
16 °C 10 km+ - Var Var 2 kt METAR LFRI 170700Z AUTO VRB02KT 9999 FEW005 16/15 Q1022
08:30
V
15 °C 9 km - 360° 360° 0 kt METAR LFRI 170630Z AUTO 00000KT 9000 NSC 15/15 Q1021
08:00
V
14 °C 8 km - 360° 360° 0 kt METAR LFRI 170600Z AUTO 00000KT 8000 FEW005 14/14 Q1021
07:30
L
12 °C 1 km 400 ft Var Var 2 kt METAR LFRI 170530Z AUTO VRB02KT 1000 R28/P2000U BCFG BKN004 12/12 Q1021
07:00
L
10 °C 400 m - 080° 080° 3 kt METAR LFRI 170500Z AUTO 08003KT 0450 0400 R28/1000U FG VV/// 10/10 Q1021
06:30
L
11 °C 250 m 400 ft 360° 360° 0 kt METAR LFRI 170430Z AUTO 00000KT 0350 0250 R28/0450D FG BKN004 11/11 Q1021
06:00
L
11 °C 550 m - 330° 330° 2 kt METAR LFRI 170400Z AUTO 33002KT 0650 0550 R28/0750D FG VV/// 11/11 Q1021
05:30
L
11 °C 400 m - Var Var 2 kt METAR LFRI 170330Z AUTO VRB02KT 0450 0400 R28/0550U FG VV/// 11/11 Q1021
05:00
L
12 °C 350 m - 360° 360° 0 kt METAR LFRI 170300Z AUTO 00000KT 0400 0350 R28/0700N FG FEW008 12/12 Q1021
04:30
L
13 °C 500 m 500 ft 280° 280° 2 kt METAR LFRI 170230Z AUTO 28002KT 0500 R28/0900U FG BKN005 13/13 Q1021
04:00
L
13 °C 550 m - 360° 360° 0 kt METAR LFRI 170200Z AUTO 00000KT 0600 0550 R28/0450D FG NSC 13/13 Q1021
03:30
L
13 °C 1,4 km - 200° 200° 2 kt METAR LFRI 170130Z AUTO 20002KT 2400 1400 R28/P2000 BR NSC 13/13 Q1021
03:00
L
13 °C 1,1 km - 200° 200° 2 kt METAR LFRI 170100Z AUTO 20002KT 2000 1100 R28/1900D BR NSC 13/13 Q1021
02:30
L
13 °C 900 m - 190° 190° 4 kt METAR LFRI 170030Z AUTO 19004KT 5000 0900 R28/P2000 BCFG NSC 13/12 Q1021
02:00
V
13 °C 9 km - 200° 200° 3 kt METAR LFRI 170000Z AUTO 20003KT 9000 FEW010 13/13 Q1021
01:30
I
13 °C 4 km - 210° 210° 3 kt METAR LFRI 162330Z AUTO 21003KT 9999 4000 FEW011 13/13 Q1021
01:00
V
14 °C 10 km+ - 210° 210° 3 kt METAR LFRI 162300Z AUTO 21003KT CAVOK 14/13 Q1021
00:30
V
14 °C 10 km+ - 240° 240° 3 kt METAR LFRI 162230Z AUTO 24003KT 9999 FEW012 14/14 Q1021
00:00
V
15 °C 10 km+ - 250° 250° 3 kt METAR LFRI 162200Z AUTO 25003KT CAVOK 15/14 Q1020

16 luglio 2024

Tempo Codice Tempo meteorologico Temp. Vista Base nuvolosa Vento METAR/SPECI
23:30
V
15 °C 10 km+ - 250° 250° 3 kt METAR LFRI 162130Z AUTO 25003KT 9999 FEW015 15/13 Q1020
23:00
V
15 °C 10 km+ - 250° 250° 2 kt METAR LFRI 162100Z AUTO 25002KT 9999 FEW032 15/14 Q1020 NOSIG
22:30
V
16 °C 10 km+ - 240° 240° 3 kt METAR LFRI 162030Z AUTO 24003KT 9999 FEW034 16/13 Q1020 NOSIG
22:00
V
16 °C 10 km+ - 270° 270° 4 kt METAR LFRI 162000Z AUTO 27004KT CAVOK 16/13 Q1020 NOSIG
21:30
V
17 °C 10 km+ - 270° 270° 6 kt METAR LFRI 161930Z AUTO 27006KT 9999 FEW034 17/13 Q1020 NOSIG
21:00
V
18 °C 10 km+ 19.000 ft 260° 260° 8 kt METAR LFRI 161900Z AUTO 26008KT 230V310 9999 FEW023 BKN190 BKN230 18/13 Q1020 NOSIG
20:30
V
19 °C 10 km+ 3.500 ft 280° 280° 8 kt METAR LFRI 161830Z AUTO 28008KT 240V310 9999 BKN035 OVC240 19/13 Q1020 NOSIG
20:00
M
19 °C 10 km+ 3.000 ft 260° 260° 9 kt METAR LFRI 161800Z AUTO 26009KT 230V290 9999 BKN030 BKN190 BKN220 19/12 Q1019 NOSIG
19:30
V
20 °C 10 km+ 3.600 ft 270° 270° 8 kt METAR LFRI 161730Z AUTO 27008KT 240V300 9999 SCT029 BKN036 20/13 Q1019 NOSIG
19:00
V
20 °C 10 km+ 3.700 ft 280° 280° 7 kt METAR LFRI 161700Z AUTO 28007KT 250V310 9999 FEW030 BKN037 20/13 Q1019 NOSIG
18:30
M
21 °C 10 km+ 3.000 ft 280° 280° 10 kt METAR LFRI 161630Z AUTO 28010KT 240V310 9999 BKN030 BKN036 21/14 Q1019 NOSIG
18:00
V
20 °C 10 km+ 3.600 ft 290° 290° 10 kt METAR LFRI 161600Z AUTO 29010KT 9999 FEW029 BKN036 BKN220 20/14 Q1019 NOSIG
17:30
V
21 °C 10 km+ 24.000 ft 270° 270° 10 kt METAR LFRI 161530Z AUTO 27010KT 230V300 9999 FEW026 SCT220 BKN240 21/14 Q1019 NOSIG
17:00
V
21 °C 10 km+ 5.400 ft 270° 270° 12 kt METAR LFRI 161500Z AUTO 27012KT 240V310 9999 FEW039 BKN054 21/14 Q1019 NOSIG
16:30
V
20 °C 10 km+ 3.200 ft 280° 280° 10 kt METAR LFRI 161430Z AUTO 28010KT 240V310 9999 FEW027 BKN032 BKN039 20/14 Q1019 NOSIG
16:00
V
21 °C 10 km+ 5.400 ft 260° 260° 9 kt METAR LFRI 161400Z AUTO 26009KT 230V310 9999 SCT027 SCT038 OVC054 21/14 Q1019 NOSIG
15:30
V
21 °C 10 km+ 3.400 ft 270° 270° 9 kt METAR LFRI 161330Z AUTO 27009KT 9999 SCT027 BKN034 BKN056 21/14 Q1019 NOSIG
15:00
V
22 °C 10 km+ 4.800 ft 250° 250° 10 kt METAR LFRI 161300Z AUTO 25010KT 220V290 9999 FEW026 SCT031 BKN048 22/15 Q1018 NOSIG
14:30
M
21 °C 10 km+ 2.700 ft 250° 250° 13 kt METAR LFRI 161230Z AUTO 25013KT 220V290 9999 BKN027 BKN033 BKN044 21/14 Q1018 NOSIG
14:00
M
22 °C 10 km+ 2.900 ft 250° 250° 12 - 23 kt METAR LFRI 161200Z AUTO 25012G23KT 220V280 9999 BKN029 BKN043 BKN054 22/14 Q1018 NOSIG
13:30
M
19 °C 10 km+ 2.500 ft 260° 260° 10 kt METAR LFRI 161130Z AUTO 26010KT 230V300 9999 BKN025 BKN037 BKN049 19/15 Q1018 NOSIG
13:00
M
19 °C 10 km+ 2.700 ft 260° 260° 10 kt METAR LFRI 161100Z AUTO 26010KT 240V300 9999 BKN027 BKN038 BKN048 19/14 Q1018 NOSIG
12:30
M
20 °C 10 km+ 2.900 ft 260° 260° 10 kt METAR LFRI 161030Z AUTO 26010KT 220V300 9999 BKN029 BKN038 BKN045 20/14 Q1017 NOSIG
12:00
M
20 °C 10 km+ 2.800 ft 260° 260° 9 kt METAR LFRI 161000Z AUTO 26009KT 230V290 9999 BKN028 BKN038 OVC058 20/14 Q1017 TEMPO 4000 SHRA SCT012 BKN020TCU
11:30
V
20 °C 10 km+ 5.800 ft 240° 240° 8 kt METAR LFRI 160930Z AUTO 24008KT 210V290 9999 FEW024 SCT044 BKN058 20/15 Q1017 TEMPO 4000 SHRA SCT012 BKN020TCU
11:00
M
19 °C 10 km+ 2.900 ft 240° 240° 9 kt METAR LFRI 160900Z AUTO 24009KT 210V270 9999 SCT023 BKN029 BKN034 19/15 Q1017 TEMPO 4000 SHRA SCT012 BKN020TCU
10:30
M
20 °C 10 km+ 2.300 ft 250° 250° 10 kt METAR LFRI 160830Z AUTO 25010KT 210V280 9999 BKN023 BKN031 BKN054 20/15 Q1017 TEMPO 4000 SHRA SCT012 BKN020TCU
10:00
M
19 °C 10 km+ 2.200 ft 250° 250° 10 kt METAR LFRI 160800Z AUTO 25010KT 210V290 9999 BKN022 BKN028 19/15 Q1017 TEMPO 4000 SHRA SCT012 BKN020TCU
09:30
M
18 °C 10 km+ 1.800 ft 250° 250° 10 kt METAR LFRI 160730Z AUTO 25010KT 9999 BKN018 18/15 Q1017 TEMPO 4000 SHRA SCT012 BKN020TCU
09:00
V
18 °C 10 km+ - 230° 230° 9 kt METAR LFRI 160700Z AUTO 23009KT 200V270 9999 FEW015 18/16 Q1016 TEMPO 4000 SHRA SCT012 BKN020TCU
08:30
V
17 °C 10 km+ - 220° 220° 6 kt METAR LFRI 160630Z AUTO 22006KT 200V260 CAVOK 17/15 Q1016 TEMPO 4000 SHRA SCT012 BKN020TCU
08:00
V
17 °C 10 km+ - 230° 230° 5 kt METAR LFRI 160600Z AUTO 23005KT CAVOK 17/15 Q1016 TEMPO 4000 SHRA SCT012 BKN020TCU
Segnala modifiche